Terminal Aerodrome Forecast
Issued by NWS

Home | Current Version | Previous Version | Text Only | Print | Product List | Glossary On
Versions: 1 2 3 4 5 6 7 8 9 10 11 12 13 14 15 16 17 18
000
FTUS43 KILX 211635 AAA
TAFBMI
TAF AMD
KBMI 211635Z 2117/2212 17009KT 1/4SM -RA FG OVC003
     FM211800 17009KT 1SM BR OVC003
     FM220400 17010KT 3SM BR VCSH OVC003
     FM220600 17011G19KT 5SM -SHRA OVC003=

USA.gov is the U.S. government's official web portal to all federal, state and local government web resources and services.